createdAt,value
2022-08-23T00:00:34.369Z,91.22
2022-08-23T00:03:21.983Z,91.33
2022-08-23T00:06:10.543Z,91.61
2022-08-23T00:08:59.066Z,91.61
2022-08-23T00:11:52.495Z,91.61
2022-08-23T00:14:41.967Z,91.89
2022-08-23T00:17:34.776Z,92.19
2022-08-23T00:20:20.863Z,92.71
2022-08-23T00:23:08.288Z,93.26
2022-08-23T00:25:55.303Z,94.04
2022-08-23T00:28:42.848Z,94.63
2022-08-23T00:31:31.306Z,95.00
2022-08-23T00:34:19.047Z,95.29
2022-08-23T00:37:07.958Z,95.68
2022-08-23T00:39:55.429Z,96.26
2022-08-23T00:43:25.447Z,96.67
2022-08-23T00:46:49.300Z,97.20
2022-08-23T00:49:38.527Z,97.39
2022-08-23T00:52:34.599Z,97.35
2022-08-23T00:55:22.384Z,97.62
2022-08-23T00:58:10.991Z,97.73
2022-08-23T01:01:01.305Z,98.11
2022-08-23T01:03:49.757Z,98.42
2022-08-23T01:06:47.791Z,98.81
2022-08-23T01:09:34.927Z,99.11
2022-08-23T01:12:32.825Z,99.13
2022-08-23T01:18:08.769Z,99.57
2022-08-23T01:21:24.552Z,99.81
2022-08-23T01:24:19.198Z,100.00
2022-08-23T01:27:02.217Z,100.00
2022-08-23T01:29:49.574Z,100.00
2022-08-23T01:32:40.415Z,100.00
2022-08-23T01:35:36.863Z,100.00
2022-08-23T01:38:24.801Z,100.00
2022-08-23T01:41:12.160Z,100.00
2022-08-23T01:44:00.415Z,100.00
2022-08-23T01:46:48.624Z,100.00
2022-08-23T01:49:37.680Z,100.00
2022-08-23T01:52:25.463Z,100.00
2022-08-23T01:55:13.351Z,100.00
2022-08-23T01:58:02.807Z,100.00
2022-08-23T02:00:49.897Z,100.00
2022-08-23T02:03:38.080Z,100.00
2022-08-23T02:06:26.048Z,100.00
2022-08-23T02:09:17.194Z,100.00
2022-08-23T02:12:04.121Z,100.00
2022-08-23T02:14:51.399Z,100.00
2022-08-23T02:17:38.864Z,100.00
2022-08-23T02:20:25.880Z,100.00
2022-08-23T02:23:14.032Z,100.00
2022-08-23T02:26:01.447Z,100.00
2022-08-23T02:28:54.088Z,100.00
2022-08-23T02:31:44.455Z,100.00
2022-08-23T02:34:32.160Z,100.00
2022-08-23T02:37:19.713Z,100.00
2022-08-23T02:40:08.650Z,100.00
2022-08-23T02:42:56.399Z,100.00
2022-08-23T02:45:44.064Z,100.00
2022-08-23T02:48:32.553Z,100.00
2022-08-23T02:51:22.096Z,100.00
2022-08-23T02:54:09.681Z,100.00
2022-08-23T02:56:57.287Z,100.00
2022-08-23T02:59:44.552Z,100.00
2022-08-23T03:02:32.130Z,100.00
2022-08-23T03:05:19.888Z,100.00
2022-08-23T03:08:08.406Z,100.00
2022-08-23T03:10:56.280Z,100.00
2022-08-23T03:13:45.935Z,100.00
2022-08-23T03:16:33.427Z,100.00
2022-08-23T03:19:21.735Z,100.00
2022-08-23T03:22:09.544Z,100.00
2022-08-23T03:24:57.441Z,100.00
2022-08-23T03:27:45.550Z,100.00
2022-08-23T03:30:33.939Z,100.00
2022-08-23T03:33:21.633Z,100.00
2022-08-23T03:36:10.679Z,100.00
2022-08-23T03:38:57.937Z,100.00
2022-08-23T03:41:45.402Z,100.00
2022-08-23T03:44:33.240Z,100.00
2022-08-23T03:47:21.040Z,100.00
2022-08-23T03:54:00.152Z,100.00
2022-08-23T03:57:03.198Z,100.00
2022-08-23T03:59:50.663Z,100.00
2022-08-23T04:02:38.415Z,100.00
2022-08-23T04:05:26.221Z,100.00
2022-08-23T04:08:14.156Z,100.00
2022-08-23T04:13:49.756Z,99.37
2022-08-23T04:16:40.504Z,99.04
2022-08-23T04:19:28.104Z,98.71
2022-08-23T04:22:19.260Z,98.35
2022-08-23T04:25:16.289Z,97.79
2022-08-23T04:27:56.187Z,97.08
2022-08-23T04:30:45.473Z,96.63
2022-08-23T04:33:35.751Z,96.09
2022-08-23T04:36:24.263Z,95.28
2022-08-23T04:39:12.409Z,94.76
2022-08-23T04:42:17.592Z,94.29
2022-08-23T04:45:05.607Z,93.50
2022-08-23T04:47:53.537Z,92.76
2022-08-23T04:50:42.713Z,92.40
2022-08-23T04:53:30.617Z,91.86
2022-08-23T04:56:17.696Z,91.27
2022-08-23T04:59:05.194Z,90.52
2022-08-23T05:01:53.511Z,90.17
2022-08-23T05:04:41.460Z,89.20
2022-08-23T05:07:41.833Z,87.78
2022-08-23T05:10:18.088Z,86.54
2022-08-23T05:13:05.529Z,85.94
2022-08-23T05:15:53.241Z,85.59
2022-08-23T05:18:40.865Z,85.28
2022-08-23T05:21:28.656Z,85.31
2022-08-23T05:24:16.537Z,85.49
2022-08-23T05:27:03.848Z,85.68
2022-08-23T05:29:52.850Z,85.58
2022-08-23T05:32:40.745Z,85.43
2022-08-23T05:35:28.472Z,85.00
2022-08-23T05:38:20.509Z,84.15
2022-08-23T05:41:07.042Z,82.92
2022-08-23T05:43:54.744Z,82.30
2022-08-23T05:46:43.508Z,82.11
2022-08-23T05:49:31.242Z,81.58
2022-08-23T05:52:18.674Z,81.10
2022-08-23T05:55:07.504Z,81.27
2022-08-23T05:57:54.622Z,81.39
2022-08-23T06:00:43.431Z,81.52
2022-08-23T06:03:31.096Z,81.23
2022-08-23T06:06:19.224Z,80.95
2022-08-23T06:09:09.760Z,80.47
2022-08-23T06:11:58.920Z,80.34
2022-08-23T06:14:46.042Z,80.33
2022-08-23T06:17:33.632Z,80.57
2022-08-23T06:20:21.349Z,80.82
2022-08-23T06:23:09.377Z,81.12
2022-08-23T06:25:58.881Z,81.04
2022-08-23T06:28:51.657Z,80.72
2022-08-23T06:31:49.177Z,80.52
2022-08-23T06:34:38.704Z,80.57
2022-08-23T06:37:26.025Z,80.56
2022-08-23T06:40:17.903Z,80.51
2022-08-23T06:43:05.737Z,79.87
2022-08-23T06:45:58.277Z,79.37
2022-08-23T06:48:44.616Z,78.93
2022-08-23T06:51:41.515Z,78.50
2022-08-23T06:54:31.982Z,77.73
2022-08-23T06:57:20.694Z,77.17
2022-08-23T07:00:11.355Z,76.91
2022-08-23T07:02:58.765Z,76.48
2022-08-23T07:05:46.297Z,76.14
2022-08-23T07:08:33.585Z,74.83
2022-08-23T07:11:22.193Z,74.07
2022-08-23T07:14:12.281Z,72.89
2022-08-23T07:17:01.520Z,72.14
2022-08-23T07:19:49.026Z,71.46
2022-08-23T07:22:36.896Z,71.54
2022-08-23T07:25:24.680Z,71.44
2022-08-23T07:28:12.520Z,71.23
2022-08-23T07:31:18.648Z,70.98
2022-08-23T07:34:07.308Z,70.29
2022-08-23T07:36:55.305Z,69.37
2022-08-23T07:39:42.863Z,68.85
2022-08-23T07:42:30.178Z,67.88
2022-08-23T07:45:19.009Z,66.51
2022-08-23T07:48:08.302Z,66.92
2022-08-23T07:51:01.228Z,67.11
2022-08-23T07:53:48.479Z,66.83
2022-08-23T07:56:36.644Z,65.68
2022-08-23T07:59:24.072Z,65.58
2022-08-23T08:02:11.276Z,65.34
2022-08-23T08:04:58.932Z,64.20
2022-08-23T08:07:46.131Z,64.89
2022-08-23T08:10:35.729Z,64.46
2022-08-23T08:13:23.049Z,62.95
2022-08-23T08:16:14.172Z,63.13
2022-08-23T08:19:03.551Z,62.25
2022-08-23T08:21:51.339Z,60.46
2022-08-23T08:24:39.122Z,59.94
2022-08-23T08:27:26.313Z,58.62
2022-08-23T08:30:13.792Z,58.72
2022-08-23T08:33:01.770Z,57.37
2022-08-23T08:35:57.553Z,56.73
2022-08-23T08:38:48.041Z,54.90
2022-08-23T08:41:35.553Z,55.41
2022-08-23T08:44:34.751Z,56.19
2022-08-23T08:47:25.351Z,55.98
2022-08-23T08:50:38.993Z,54.95
2022-08-23T08:56:32.300Z,56.30
2022-08-23T08:59:22.064Z,54.98
2022-08-23T09:02:20.129Z,55.26
2022-08-23T09:05:02.888Z,55.73
2022-08-23T09:08:26.671Z,56.43
2022-08-23T09:11:29.072Z,55.59
2022-08-23T09:14:34.662Z,54.50
2022-08-23T09:17:44.160Z,53.65
2022-08-23T09:20:33.340Z,54.05
2022-08-23T09:23:32.498Z,53.58
2022-08-23T09:26:25.423Z,53.37
2022-08-23T09:29:21.577Z,52.98
2022-08-23T09:32:29.936Z,52.89
2022-08-23T09:35:27.264Z,51.71
2022-08-23T09:38:23.272Z,51.16
2022-08-23T09:41:20.505Z,50.99
2022-08-23T09:44:13.256Z,50.35
2022-08-23T09:47:15.759Z,50.90
2022-08-23T09:50:12.169Z,51.54
2022-08-23T09:53:04.275Z,51.33
2022-08-23T09:55:53.402Z,50.68
2022-08-23T09:58:47.160Z,51.03
2022-08-23T10:01:39.077Z,49.55
2022-08-23T10:04:28.259Z,50.10
2022-08-23T10:07:35.608Z,50.10
2022-08-23T10:10:26.254Z,50.42
2022-08-23T10:13:14.856Z,49.97
2022-08-23T10:16:05.049Z,50.03
2022-08-23T10:19:07.682Z,49.39
2022-08-23T10:24:49.808Z,47.97
2022-08-23T10:28:18.489Z,48.00
2022-08-23T10:31:28.496Z,47.29
2022-08-23T10:34:24.431Z,47.74
2022-08-23T10:37:34.555Z,47.44
2022-08-23T10:40:35.028Z,48.25
2022-08-23T10:43:34.362Z,48.66
2022-08-23T10:46:23.990Z,49.75
2022-08-23T10:49:12.952Z,49.53
2022-08-23T10:52:01.616Z,48.60
2022-08-23T10:55:00.696Z,49.18
2022-08-23T10:57:49.450Z,49.51
2022-08-23T11:00:38.009Z,49.64
2022-08-23T11:03:40.016Z,49.37
2022-08-23T11:06:35.762Z,49.10
2022-08-23T11:09:26.560Z,48.86
2022-08-23T11:12:28.946Z,48.63
2022-08-23T11:15:22.112Z,49.62
2022-08-23T11:18:14.088Z,49.43
2022-08-23T11:21:10.224Z,48.60
2022-08-23T11:24:00.296Z,48.93
2022-08-23T11:26:51.640Z,49.46
2022-08-23T11:29:40.545Z,49.55
2022-08-23T11:32:35.714Z,49.34
2022-08-23T11:35:33.033Z,49.48
2022-08-23T11:38:40.712Z,48.97
2022-08-23T11:41:30.241Z,49.59
2022-08-23T11:44:20.695Z,50.48
2022-08-23T11:47:10.839Z,50.81
2022-08-23T11:53:08.619Z,51.45
2022-08-23T11:56:11.768Z,51.53
2022-08-23T11:59:21.607Z,50.81
2022-08-23T12:02:37.073Z,49.75
2022-08-23T12:05:31.854Z,48.56
2022-08-23T12:08:41.699Z,47.61
2022-08-23T12:11:48.256Z,46.66
2022-08-23T12:14:44.329Z,46.71
2022-08-23T12:17:40.409Z,46.37
2022-08-23T12:20:29.399Z,46.47
2022-08-23T12:23:19.663Z,47.58
2022-08-23T12:26:10.680Z,48.56
2022-08-23T12:29:07.488Z,48.69
2022-08-23T12:32:03.616Z,48.81
2022-08-23T12:37:57.209Z,48.21
2022-08-23T12:40:54.553Z,48.02
2022-08-23T12:43:43.296Z,47.70
2022-08-23T12:46:42.828Z,48.72
2022-08-23T12:49:33.552Z,49.01
2022-08-23T12:52:23.776Z,49.91
2022-08-23T12:55:19.798Z,49.86
2022-08-23T12:58:08.719Z,50.28
2022-08-23T13:00:59.040Z,51.25
2022-08-23T13:03:49.407Z,52.29
2022-08-23T13:06:40.015Z,52.82
2022-08-23T13:09:34.943Z,53.26
2022-08-23T13:12:22.152Z,54.12
2022-08-23T13:15:10.036Z,55.27
2022-08-23T13:18:02.319Z,55.27
2022-08-23T13:20:49.392Z,56.45
2022-08-23T13:23:36.928Z,57.54
2022-08-23T13:26:39.267Z,59.06
2022-08-23T13:29:26.960Z,60.81
2022-08-23T13:32:26.987Z,60.88
2022-08-23T13:35:25.278Z,61.94
2022-08-23T13:38:20.822Z,62.98
2022-08-23T13:41:08.982Z,62.66
2022-08-23T13:43:56.495Z,60.40
2022-08-23T13:46:48.711Z,61.05
2022-08-23T13:49:37.584Z,61.50
2022-08-23T13:55:14.754Z,64.92
2022-08-23T13:58:02.177Z,65.59
2022-08-23T14:00:55.233Z,66.31
2022-08-23T14:03:38.927Z,66.94
2022-08-23T14:06:26.490Z,66.94
2022-08-23T14:09:15.486Z,68.20
2022-08-23T14:12:05.265Z,68.85
2022-08-23T14:14:54.415Z,69.84
2022-08-23T14:17:48.428Z,69.67
2022-08-23T14:20:51.651Z,69.56
2022-08-23T14:23:25.575Z,70.32
2022-08-23T14:26:15.512Z,70.69
2022-08-23T14:29:02.991Z,71.51
2022-08-23T14:31:50.952Z,72.39
2022-08-23T14:34:38.456Z,73.83
2022-08-23T14:40:15.682Z,78.15
2022-08-23T14:43:04.086Z,80.18
2022-08-23T14:45:53.203Z,80.50
2022-08-23T14:48:40.608Z,81.67
2022-08-23T14:51:32.360Z,83.78
2022-08-23T14:54:25.049Z,82.60
2022-08-23T14:57:12.992Z,82.37
2022-08-23T15:00:00.877Z,82.86
2022-08-23T15:02:50.417Z,82.12
2022-08-23T15:06:01.173Z,82.08
2022-08-23T15:08:49.808Z,82.61
2022-08-23T15:14:27.281Z,80.29
2022-08-23T15:17:14.583Z,80.89
2022-08-23T15:20:02.074Z,81.59
2022-08-23T15:22:55.807Z,82.23
2022-08-23T15:25:40.656Z,82.79
2022-08-23T15:28:28.259Z,83.71
2022-08-23T15:31:17.329Z,84.92
2022-08-23T15:34:05.472Z,85.73
2022-08-23T15:36:54.442Z,86.48
2022-08-23T15:39:43.342Z,87.65
2022-08-23T15:42:31.215Z,86.62
2022-08-23T15:45:19.032Z,85.33
2022-08-23T15:48:09.312Z,85.51
2022-08-23T15:50:58.270Z,85.59
2022-08-23T15:53:46.552Z,85.87
2022-08-23T15:56:36.833Z,86.25
2022-08-23T15:59:24.208Z,86.64
2022-08-23T16:02:12.079Z,86.76
2022-08-23T16:04:59.831Z,86.87
2022-08-23T16:07:47.832Z,86.75
2022-08-23T16:10:35.674Z,86.34
2022-08-23T16:13:23.592Z,86.07
2022-08-23T16:16:18.665Z,85.84
2022-08-23T16:19:08.839Z,86.08
2022-08-23T16:21:57.119Z,86.30
2022-08-23T16:24:45.193Z,86.25
2022-08-23T16:27:32.912Z,86.33
2022-08-23T16:30:20.088Z,86.40
2022-08-23T16:33:07.658Z,86.35
2022-08-23T16:35:55.295Z,86.14
2022-08-23T16:38:42.800Z,86.18
2022-08-23T16:41:30.375Z,86.36
2022-08-23T16:44:18.520Z,86.90
2022-08-23T16:47:07.655Z,87.33
2022-08-23T16:49:57.520Z,87.61
2022-08-23T16:52:45.177Z,87.97
2022-08-23T16:55:33.154Z,88.52
2022-08-23T16:58:23.152Z,88.65
2022-08-23T17:01:22.944Z,88.79
2022-08-23T17:04:10.360Z,88.94
2022-08-23T17:06:58.775Z,90.01
2022-08-23T17:09:47.196Z,90.62
2022-08-23T17:12:36.928Z,90.77
2022-08-23T17:15:27.391Z,90.94
2022-08-23T17:18:15.111Z,90.98
2022-08-23T17:21:02.712Z,90.95
2022-08-23T17:23:50.312Z,91.08
2022-08-23T17:26:38.168Z,91.62
2022-08-23T17:29:25.672Z,92.51
2022-08-23T17:32:13.792Z,93.79
2022-08-23T17:35:03.833Z,94.84
2022-08-23T17:37:51.616Z,95.09
2022-08-23T17:40:42.648Z,95.32
2022-08-23T17:43:30.631Z,95.89
2022-08-23T17:46:20.343Z,96.28
2022-08-23T17:49:08.688Z,96.76
2022-08-23T17:51:57.711Z,97.04
2022-08-23T17:54:46.920Z,97.48
2022-08-23T17:57:34.519Z,97.61
2022-08-23T18:00:22.592Z,97.80
2022-08-23T18:03:10.435Z,97.98
2022-08-23T18:05:57.959Z,98.10
2022-08-23T18:08:46.476Z,98.35
2022-08-23T18:11:35.183Z,98.77
2022-08-23T18:14:24.816Z,99.21
2022-08-23T18:17:13.063Z,99.80
2022-08-23T18:20:02.695Z,100.00
2022-08-23T18:22:50.983Z,100.00
2022-08-23T18:25:40.048Z,100.00
2022-08-23T18:28:30.640Z,100.00
2022-08-23T18:31:21.000Z,100.00
2022-08-23T18:34:09.247Z,100.00
2022-08-23T18:36:59.809Z,100.00
2022-08-23T18:39:48.623Z,100.00
2022-08-23T18:42:37.825Z,100.00
2022-08-23T18:45:25.831Z,100.00
2022-08-23T18:48:13.423Z,100.00
2022-08-23T18:51:02.417Z,100.00
2022-08-23T18:53:51.535Z,100.00
2022-08-23T18:56:40.927Z,100.00
2022-08-23T18:59:30.072Z,100.00
2022-08-23T19:02:18.101Z,100.00
2022-08-23T19:05:08.054Z,100.00
2022-08-23T19:07:56.255Z,100.00
2022-08-23T19:10:49.639Z,100.00
2022-08-23T19:13:37.447Z,100.00
2022-08-23T19:16:37.170Z,100.00
2022-08-23T19:19:29.135Z,100.00
2022-08-23T19:22:18.280Z,100.00
2022-08-23T19:25:08.057Z,100.00
2022-08-23T19:27:59.463Z,100.00
2022-08-23T19:30:49.023Z,100.00
2022-08-23T19:33:38.726Z,100.00
2022-08-23T19:36:45.108Z,100.00
2022-08-23T19:39:17.272Z,100.00
2022-08-23T19:42:11.911Z,100.00
2022-08-23T19:45:00.447Z,100.00
2022-08-23T19:47:51.023Z,100.00
2022-08-23T19:50:41.488Z,100.00
2022-08-23T19:53:30.359Z,100.00
2022-08-23T19:56:21.400Z,100.00
2022-08-23T19:59:23.329Z,100.00
2022-08-23T20:02:15.830Z,100.00
2022-08-23T20:05:08.329Z,100.00
2022-08-23T20:07:59.112Z,100.00
2022-08-23T20:10:46.817Z,100.00
2022-08-23T20:13:37.720Z,100.00
2022-08-23T20:16:29.253Z,100.00
2022-08-23T20:19:18.782Z,100.00
2022-08-23T20:22:25.253Z,100.00
2022-08-23T20:25:12.922Z,100.00
2022-08-23T20:28:01.939Z,100.00
2022-08-23T20:30:50.114Z,100.00
2022-08-23T20:33:37.887Z,100.00
2022-08-23T20:36:28.538Z,100.00
2022-08-23T20:39:20.431Z,100.00
2022-08-23T20:42:09.240Z,100.00
2022-08-23T20:44:57.617Z,100.00
2022-08-23T20:47:45.880Z,100.00
2022-08-23T20:50:36.184Z,100.00
2022-08-23T20:53:24.929Z,100.00
2022-08-23T20:56:13.882Z,100.00
2022-08-23T20:59:01.433Z,100.00
2022-08-23T21:01:51.082Z,100.00
2022-08-23T21:04:40.324Z,100.00
2022-08-23T21:07:28.784Z,100.00
2022-08-23T21:10:16.760Z,100.00
2022-08-23T21:13:05.582Z,100.00
2022-08-23T21:15:54.130Z,100.00
2022-08-23T21:18:42.056Z,100.00
2022-08-23T21:21:29.767Z,100.00
2022-08-23T21:24:17.360Z,100.00
2022-08-23T21:27:09.713Z,100.00
2022-08-23T21:29:53.640Z,100.00
2022-08-23T21:32:41.281Z,100.00
2022-08-23T21:35:28.465Z,100.00
2022-08-23T21:38:16.354Z,100.00
2022-08-23T21:41:05.663Z,100.00
2022-08-23T21:43:53.616Z,100.00
2022-08-23T21:46:41.713Z,100.00
2022-08-23T21:49:29.588Z,100.00
2022-08-23T21:52:17.136Z,100.00
2022-08-23T21:55:04.888Z,100.00
2022-08-23T21:57:52.312Z,100.00
2022-08-23T22:00:41.361Z,100.00
2022-08-23T22:03:28.761Z,100.00
2022-08-23T22:06:18.896Z,100.00
2022-08-23T22:09:08.992Z,100.00
2022-08-23T22:11:57.577Z,100.00
2022-08-23T22:14:45.434Z,100.00
2022-08-23T22:17:32.714Z,100.00
2022-08-23T22:20:20.952Z,100.00
2022-08-23T22:23:08.481Z,100.00
2022-08-23T22:26:00.208Z,100.00
2022-08-23T22:28:48.370Z,100.00
2022-08-23T22:31:36.552Z,100.00
2022-08-23T22:34:24.520Z,100.00
2022-08-23T22:37:12.097Z,100.00
2022-08-23T22:40:00.347Z,100.00
2022-08-23T22:42:48.561Z,100.00
2022-08-23T22:45:36.424Z,100.00
2022-08-23T22:48:24.067Z,100.00
2022-08-23T22:51:20.096Z,100.00
2022-08-23T22:54:10.360Z,100.00
2022-08-23T22:56:58.536Z,100.00
2022-08-23T22:59:45.995Z,100.00
2022-08-23T23:02:33.041Z,100.00
2022-08-23T23:05:20.649Z,100.00
2022-08-23T23:08:26.137Z,100.00
2022-08-23T23:11:15.387Z,100.00
2022-08-23T23:14:03.350Z,100.00
2022-08-23T23:16:53.324Z,100.00
2022-08-23T23:19:58.585Z,100.00
2022-08-23T23:22:46.041Z,100.00
2022-08-23T23:25:35.696Z,100.00
2022-08-23T23:28:24.000Z,100.00
2022-08-23T23:31:11.382Z,100.00
2022-08-23T23:33:58.584Z,100.00
2022-08-23T23:36:46.025Z,100.00
2022-08-23T23:39:33.721Z,100.00
2022-08-23T23:42:21.290Z,100.00
2022-08-23T23:45:09.457Z,100.00
2022-08-23T23:47:57.223Z,100.00
2022-08-23T23:50:46.544Z,100.00
2022-08-23T23:53:34.433Z,100.00
2022-08-23T23:56:24.305Z,100.00
2022-08-23T23:59:11.600Z,100.00
